sensor_id;sensor_type;location;lat;lon;timestamp;P1;durP1;ratioP1;P2;durP2;ratioP2
31210;SDS011;17836;50.948;3.946;2024-03-25T01:21:35;9.10;;;7.65;;
31210;SDS011;17836;50.948;3.946;2024-03-25T01:24:08;12.48;;;7.90;;
31210;SDS011;17836;50.948;3.946;2024-03-25T01:26:33;10.07;;;8.27;;
31210;SDS011;17836;50.948;3.946;2024-03-25T01:28:59;13.85;;;8.85;;
31210;SDS011;17836;50.948;3.946;2024-03-25T01:31:28;10.70;;;8.27;;
31210;SDS011;17836;50.948;3.946;2024-03-25T01:34:00;10.38;;;8.50;;
31210;SDS011;17836;50.948;3.946;2024-03-25T01:36:26;12.30;;;7.70;;
31210;SDS011;17836;50.948;3.946;2024-03-25T01:38:52;8.45;;;6.82;;
31210;SDS011;17836;50.948;3.946;2024-03-25T01:41:20;9.43;;;8.63;;
31210;SDS011;17836;50.948;3.946;2024-03-25T01:43:47;8.02;;;7.20;;
31210;SDS011;17836;50.948;3.946;2024-03-25T01:46:14;9.27;;;8.20;;
31210;SDS011;17836;50.948;3.946;2024-03-25T01:48:41;9.38;;;6.95;;
31210;SDS011;17836;50.948;3.946;2024-03-25T01:51:06;9.02;;;6.82;;
31210;SDS011;17836;50.948;3.946;2024-03-25T01:53:31;10.20;;;7.22;;
31210;SDS011;17836;50.948;3.946;2024-03-25T01:55:57;11.90;;;8.77;;
31210;SDS011;17836;50.948;3.946;2024-03-25T01:58:24;9.25;;;7.43;;
31210;SDS011;17836;50.948;3.946;2024-03-25T02:00:53;11.07;;;7.57;;
31210;SDS011;17836;50.948;3.946;2024-03-25T02:03:18;10.00;;;8.45;;
31210;SDS011;17836;50.948;3.946;2024-03-25T02:05:46;9.27;;;7.93;;
31210;SDS011;17836;50.948;3.946;2024-03-25T02:08:12;8.85;;;6.97;;
31210;SDS011;17836;50.948;3.946;2024-03-25T02:10:38;9.82;;;7.38;;
31210;SDS011;17836;50.948;3.946;2024-03-25T02:13:03;16.20;;;7.88;;
31210;SDS011;17836;50.948;3.946;2024-03-25T02:18:04;8.30;;;7.45;;
31210;SDS011;17836;50.948;3.946;2024-03-25T02:20:31;10.43;;;7.57;;
31210;SDS011;17836;50.948;3.946;2024-03-25T02:22:56;8.30;;;7.38;;
31210;SDS011;17836;50.948;3.946;2024-03-25T02:25:21;9.50;;;7.38;;
31210;SDS011;17836;50.948;3.946;2024-03-25T02:27:47;9.52;;;7.05;;
31210;SDS011;17836;50.948;3.946;2024-03-25T02:30:12;9.75;;;6.93;;
31210;SDS011;17836;50.948;3.946;2024-03-25T02:32:39;10.27;;;7.00;;
31210;SDS011;17836;50.948;3.946;2024-03-25T02:35:09;8.52;;;7.32;;
31210;SDS011;17836;50.948;3.946;2024-03-25T02:40:00;8.77;;;6.95;;
31210;SDS011;17836;50.948;3.946;2024-03-25T02:42:28;7.30;;;6.32;;
31210;SDS011;17836;50.948;3.946;2024-03-25T02:44:57;8.77;;;7.57;;
31210;SDS011;17836;50.948;3.946;2024-03-25T02:47:25;8.80;;;6.15;;
31210;SDS011;17836;50.948;3.946;2024-03-25T02:49:51;8.35;;;6.72;;
31210;SDS011;17836;50.948;3.946;2024-03-25T02:52:17;9.05;;;6.97;;
31210;SDS011;17836;50.948;3.946;2024-03-25T02:54:42;10.68;;;7.10;;
31210;SDS011;17836;50.948;3.946;2024-03-25T02:57:08;10.13;;;7.65;;
31210;SDS011;17836;50.948;3.946;2024-03-25T02:59:34;11.38;;;7.65;;
31210;SDS011;17836;50.948;3.946;2024-03-25T03:01:59;9.50;;;7.72;;
31210;SDS011;17836;50.948;3.946;2024-03-25T03:04:24;12.85;;;7.00;;
31210;SDS011;17836;50.948;3.946;2024-03-25T03:06:51;10.05;;;7.25;;
31210;SDS011;17836;50.948;3.946;2024-03-25T03:09:19;9.63;;;6.75;;
31210;SDS011;17836;50.948;3.946;2024-03-25T03:11:45;13.88;;;7.93;;
31210;SDS011;17836;50.948;3.946;2024-03-25T03:14:11;13.20;;;7.57;;
31210;SDS011;17836;50.948;3.946;2024-03-25T03:16:36;14.40;;;7.70;;
31210;SDS011;17836;50.948;3.946;2024-03-25T03:19:01;10.90;;;8.57;;
31210;SDS011;17836;50.948;3.946;2024-03-25T03:21:27;12.13;;;7.88;;
31210;SDS011;17836;50.948;3.946;2024-03-25T03:23:52;12.20;;;8.27;;
31210;SDS011;17836;50.948;3.946;2024-03-25T03:26:20;13.38;;;8.05;;
31210;SDS011;17836;50.948;3.946;2024-03-25T03:28:45;11.37;;;8.23;;
31210;SDS011;17836;50.948;3.946;2024-03-25T03:31:12;21.90;;;10.13;;
31210;SDS011;17836;50.948;3.946;2024-03-25T03:33:37;11.60;;;7.72;;
31210;SDS011;17836;50.948;3.946;2024-03-25T03:36:02;12.23;;;8.67;;
31210;SDS011;17836;50.948;3.946;2024-03-25T03:38:28;19.92;;;8.95;;
31210;SDS011;17836;50.948;3.946;2024-03-25T03:40:59;13.02;;;8.70;;
31210;SDS011;17836;50.948;3.946;2024-03-25T03:43:25;15.63;;;10.00;;
31210;SDS011;17836;50.948;3.946;2024-03-25T03:45:51;16.10;;;8.73;;
31210;SDS011;17836;50.948;3.946;2024-03-25T03:48:16;22.30;;;9.30;;
31210;SDS011;17836;50.948;3.946;2024-03-25T03:50:42;24.80;;;10.10;;
31210;SDS011;17836;50.948;3.946;2024-03-25T03:53:07;20.38;;;9.65;;
31210;SDS011;17836;50.948;3.946;2024-03-25T03:55:33;23.25;;;9.80;;
31210;SDS011;17836;50.948;3.946;2024-03-25T03:58:00;23.58;;;10.48;;
31210;SDS011;17836;50.948;3.946;2024-03-25T04:00:28;21.35;;;9.23;;
31210;SDS011;17836;50.948;3.946;2024-03-25T04:02:57;32.83;;;10.85;;
31210;SDS011;17836;50.948;3.946;2024-03-25T04:05:23;24.85;;;11.45;;
31210;SDS011;17836;50.948;3.946;2024-03-25T04:07:50;37.47;;;11.98;;
31210;SDS011;17836;50.948;3.946;2024-03-25T04:10:19;42.95;;;11.75;;
31210;SDS011;17836;50.948;3.946;2024-03-25T04:12:47;39.22;;;11.27;;
31210;SDS011;17836;50.948;3.946;2024-03-25T04:15:12;33.50;;;12.03;;
31210;SDS011;17836;50.948;3.946;2024-03-25T04:17:42;31.90;;;11.48;;
31210;SDS011;17836;50.948;3.946;2024-03-25T04:20:10;38.00;;;12.75;;
31210;SDS011;17836;50.948;3.946;2024-03-25T04:22:35;28.75;;;11.68;;
31210;SDS011;17836;50.948;3.946;2024-03-25T04:25:03;32.00;;;13.27;;
31210;SDS011;17836;50.948;3.946;2024-03-25T04:27:28;41.70;;;13.70;;
31210;SDS011;17836;50.948;3.946;2024-03-25T04:29:56;34.85;;;13.68;;
31210;SDS011;17836;50.948;3.946;2024-03-25T04:32:21;38.00;;;12.83;;
31210;SDS011;17836;50.948;3.946;2024-03-25T04:34:47;35.37;;;13.13;;
31210;SDS011;17836;50.948;3.946;2024-03-25T04:37:12;45.58;;;13.77;;
31210;SDS011;17836;50.948;3.946;2024-03-25T04:39:37;38.63;;;12.80;;
31210;SDS011;17836;50.948;3.946;2024-03-25T04:42:05;43.30;;;14.27;;
31210;SDS011;17836;50.948;3.946;2024-03-25T04:44:33;37.92;;;14.05;;
31210;SDS011;17836;50.948;3.946;2024-03-25T04:47:01;36.13;;;13.18;;
31210;SDS011;17836;50.948;3.946;2024-03-25T04:49:26;26.20;;;12.37;;
31210;SDS011;17836;50.948;3.946;2024-03-25T04:51:54;31.33;;;12.38;;
31210;SDS011;17836;50.948;3.946;2024-03-25T04:54:19;41.25;;;14.45;;
31210;SDS011;17836;50.948;3.946;2024-03-25T04:56:47;28.92;;;13.57;;
31210;SDS011;17836;50.948;3.946;2024-03-25T04:59:12;25.92;;;12.15;;
31210;SDS011;17836;50.948;3.946;2024-03-25T05:01:37;35.15;;;12.60;;
31210;SDS011;17836;50.948;3.946;2024-03-25T05:04:05;32.13;;;13.20;;
31210;SDS011;17836;50.948;3.946;2024-03-25T05:06:34;34.50;;;12.40;;
31210;SDS011;17836;50.948;3.946;2024-03-25T05:08:59;33.90;;;12.00;;
31210;SDS011;17836;50.948;3.946;2024-03-25T05:11:24;33.63;;;12.50;;
31210;SDS011;17836;50.948;3.946;2024-03-25T05:13:50;31.15;;;13.05;;
31210;SDS011;17836;50.948;3.946;2024-03-25T05:16:15;27.35;;;12.13;;
31210;SDS011;17836;50.948;3.946;2024-03-25T05:18:41;32.50;;;12.85;;
31210;SDS011;17836;50.948;3.946;2024-03-25T05:21:06;31.10;;;12.47;;
31210;SDS011;17836;50.948;3.946;2024-03-25T05:23:33;32.17;;;11.98;;
31210;SDS011;17836;50.948;3.946;2024-03-25T05:25:59;27.40;;;11.65;;
31210;SDS011;17836;50.948;3.946;2024-03-25T05:28:24;36.83;;;12.57;;
31210;SDS011;17836;50.948;3.946;2024-03-25T05:30:52;27.67;;;11.50;;
31210;SDS011;17836;50.948;3.946;2024-03-25T05:33:18;27.52;;;11.27;;
31210;SDS011;17836;50.948;3.946;2024-03-25T05:35:43;28.13;;;12.43;;
31210;SDS011;17836;50.948;3.946;2024-03-25T05:38:10;29.30;;;9.82;;
31210;SDS011;17836;50.948;3.946;2024-03-25T05:40:35;23.50;;;9.27;;
31210;SDS011;17836;50.948;3.946;2024-03-25T05:43:07;22.50;;;8.80;;
31210;SDS011;17836;50.948;3.946;2024-03-25T05:45:32;29.65;;;9.73;;
31210;SDS011;17836;50.948;3.946;2024-03-25T05:47:57;18.50;;;8.40;;
31210;SDS011;17836;50.948;3.946;2024-03-25T05:50:22;20.97;;;8.97;;
31210;SDS011;17836;50.948;3.946;2024-03-25T05:52:47;21.47;;;8.17;;
31210;SDS011;17836;50.948;3.946;2024-03-25T05:55:13;28.25;;;8.95;;
31210;SDS011;17836;50.948;3.946;2024-03-25T05:57:41;23.45;;;9.20;;
31210;SDS011;17836;50.948;3.946;2024-03-25T06:00:06;18.42;;;8.70;;
31210;SDS011;17836;50.948;3.946;2024-03-25T06:02:36;19.10;;;9.00;;
31210;SDS011;17836;50.948;3.946;2024-03-25T06:05:02;25.40;;;8.50;;
31210;SDS011;17836;50.948;3.946;2024-03-25T06:09:59;21.90;;;8.20;;
31210;SDS011;17836;50.948;3.946;2024-03-25T06:12:24;23.65;;;9.85;;
31210;SDS011;17836;50.948;3.946;2024-03-25T06:14:52;24.27;;;9.73;;
31210;SDS011;17836;50.948;3.946;2024-03-25T06:17:17;25.25;;;9.10;;
31210;SDS011;17836;50.948;3.946;2024-03-25T06:19:42;20.93;;;9.27;;
31210;SDS011;17836;50.948;3.946;2024-03-25T06:22:08;22.05;;;9.15;;
31210;SDS011;17836;50.948;3.946;2024-03-25T06:24:33;30.08;;;9.93;;
31210;SDS011;17836;50.948;3.946;2024-03-25T06:27:01;26.37;;;8.80;;
31210;SDS011;17836;50.948;3.946;2024-03-25T06:29:28;29.02;;;9.48;;
31210;SDS011;17836;50.948;3.946;2024-03-25T06:32:00;32.83;;;10.45;;
31210;SDS011;17836;50.948;3.946;2024-03-25T06:34:44;27.08;;;8.57;;
31210;SDS011;17836;50.948;3.946;2024-03-25T06:37:09;29.07;;;10.00;;
31210;SDS011;17836;50.948;3.946;2024-03-25T06:39:42;25.63;;;9.55;;
31210;SDS011;17836;50.948;3.946;2024-03-25T06:42:17;34.20;;;9.27;;
31210;SDS011;17836;50.948;3.946;2024-03-25T06:44:45;39.95;;;10.77;;
31210;SDS011;17836;50.948;3.946;2024-03-25T06:50:18;26.13;;;9.73;;
31210;SDS011;17836;50.948;3.946;2024-03-25T06:52:55;28.00;;;9.25;;
31210;SDS011;17836;50.948;3.946;2024-03-25T06:55:20;23.52;;;10.20;;
31210;SDS011;17836;50.948;3.946;2024-03-25T06:57:50;30.77;;;9.15;;
31210;SDS011;17836;50.948;3.946;2024-03-25T07:00:23;23.27;;;10.07;;
31210;SDS011;17836;50.948;3.946;2024-03-25T07:02:52;33.25;;;9.82;;
31210;SDS011;17836;50.948;3.946;2024-03-25T07:05:17;31.40;;;9.40;;
31210;SDS011;17836;50.948;3.946;2024-03-25T07:07:43;23.42;;;10.10;;
31210;SDS011;17836;50.948;3.946;2024-03-25T07:10:09;28.08;;;11.07;;
31210;SDS011;17836;50.948;3.946;2024-03-25T07:12:34;32.47;;;10.15;;
31210;SDS011;17836;50.948;3.946;2024-03-25T07:15:00;41.72;;;11.38;;
31210;SDS011;17836;50.948;3.946;2024-03-25T07:17:26;33.30;;;11.00;;
31210;SDS011;17836;50.948;3.946;2024-03-25T07:19:51;25.92;;;10.15;;
31210;SDS011;17836;50.948;3.946;2024-03-25T07:22:18;27.60;;;12.05;;
31210;SDS011;17836;50.948;3.946;2024-03-25T07:24:44;28.25;;;10.38;;
31210;SDS011;17836;50.948;3.946;2024-03-25T07:27:09;26.88;;;11.00;;
31210;SDS011;17836;50.948;3.946;2024-03-25T07:29:35;23.52;;;9.85;;
31210;SDS011;17836;50.948;3.946;2024-03-25T07:32:00;25.63;;;12.60;;
31210;SDS011;17836;50.948;3.946;2024-03-25T07:34:25;27.70;;;11.17;;
31210;SDS011;17836;50.948;3.946;2024-03-25T07:36:51;30.58;;;11.00;;
31210;SDS011;17836;50.948;3.946;2024-03-25T07:39:17;25.20;;;11.07;;
31210;SDS011;17836;50.948;3.946;2024-03-25T07:41:42;24.10;;;11.02;;
31210;SDS011;17836;50.948;3.946;2024-03-25T07:44:07;25.83;;;11.10;;
31210;SDS011;17836;50.948;3.946;2024-03-25T07:46:32;26.60;;;10.68;;
31210;SDS011;17836;50.948;3.946;2024-03-25T07:52:00;20.75;;;10.20;;
31210;SDS011;17836;50.948;3.946;2024-03-25T07:54:26;28.33;;;10.90;;
31210;SDS011;17836;50.948;3.946;2024-03-25T07:56:52;32.40;;;10.98;;
31210;SDS011;17836;50.948;3.946;2024-03-25T07:59:17;28.30;;;10.35;;
31210;SDS011;17836;50.948;3.946;2024-03-25T08:01:42;26.02;;;10.35;;
31210;SDS011;17836;50.948;3.946;2024-03-25T08:04:08;25.33;;;10.52;;
31210;SDS011;17836;50.948;3.946;2024-03-25T08:06:41;18.27;;;9.80;;
31210;SDS011;17836;50.948;3.946;2024-03-25T08:09:14;23.45;;;9.45;;
31210;SDS011;17836;50.948;3.946;2024-03-25T08:11:47;26.98;;;10.88;;
31210;SDS011;17836;50.948;3.946;2024-03-25T08:14:13;19.27;;;9.52;;
31210;SDS011;17836;50.948;3.946;2024-03-25T08:16:47;22.52;;;9.35;;
31210;SDS011;17836;50.948;3.946;2024-03-25T08:19:12;25.45;;;9.38;;
31210;SDS011;17836;50.948;3.946;2024-03-25T08:21:46;21.13;;;9.10;;
31210;SDS011;17836;50.948;3.946;2024-03-25T08:24:13;22.73;;;8.80;;
31210;SDS011;17836;50.948;3.946;2024-03-25T08:26:38;18.38;;;8.95;;
31210;SDS011;17836;50.948;3.946;2024-03-25T08:29:06;29.20;;;9.70;;
31210;SDS011;17836;50.948;3.946;2024-03-25T08:31:31;21.05;;;10.05;;
31210;SDS011;17836;50.948;3.946;2024-03-25T08:34:02;19.85;;;9.80;;
31210;SDS011;17836;50.948;3.946;2024-03-25T08:36:30;22.03;;;10.17;;
31210;SDS011;17836;50.948;3.946;2024-03-25T08:38:55;24.33;;;9.57;;
31210;SDS011;17836;50.948;3.946;2024-03-25T08:41:21;19.98;;;9.20;;
31210;SDS011;17836;50.948;3.946;2024-03-25T08:43:47;17.88;;;9.25;;
31210;SDS011;17836;50.948;3.946;2024-03-25T08:46:13;22.52;;;9.57;;
31210;SDS011;17836;50.948;3.946;2024-03-25T08:48:40;18.77;;;9.85;;
31210;SDS011;17836;50.948;3.946;2024-03-25T08:51:08;19.15;;;9.82;;
31210;SDS011;17836;50.948;3.946;2024-03-25T08:53:33;21.40;;;9.83;;
31210;SDS011;17836;50.948;3.946;2024-03-25T08:55:58;19.40;;;9.80;;
31210;SDS011;17836;50.948;3.946;2024-03-25T08:58:25;23.40;;;9.20;;
31210;SDS011;17836;50.948;3.946;2024-03-25T09:03:21;17.13;;;8.30;;
31210;SDS011;17836;50.948;3.946;2024-03-25T09:05:47;18.70;;;8.95;;
31210;SDS011;17836;50.948;3.946;2024-03-25T09:08:12;23.80;;;9.95;;
31210;SDS011;17836;50.948;3.946;2024-03-25T09:10:38;32.50;;;11.35;;
31210;SDS011;17836;50.948;3.946;2024-03-25T09:13:22;21.65;;;10.40;;
31210;SDS011;17836;50.948;3.946;2024-03-25T09:15:50;26.55;;;12.40;;
31210;SDS011;17836;50.948;3.946;2024-03-25T09:18:15;24.70;;;11.90;;
31210;SDS011;17836;50.948;3.946;2024-03-25T09:20:40;27.98;;;12.95;;
31210;SDS011;17836;50.948;3.946;2024-03-25T09:23:06;32.10;;;15.90;;
31210;SDS011;17836;50.948;3.946;2024-03-25T09:25:34;35.28;;;17.05;;
31210;SDS011;17836;50.948;3.946;2024-03-25T09:27:59;34.33;;;18.00;;
31210;SDS011;17836;50.948;3.946;2024-03-25T09:30:27;34.83;;;18.75;;
31210;SDS011;17836;50.948;3.946;2024-03-25T09:32:53;38.07;;;19.60;;
31210;SDS011;17836;50.948;3.946;2024-03-25T09:35:18;38.73;;;19.43;;
31210;SDS011;17836;50.948;3.946;2024-03-25T09:37:44;40.17;;;20.67;;
31210;SDS011;17836;50.948;3.946;2024-03-25T09:40:10;33.65;;;19.10;;
31210;SDS011;17836;50.948;3.946;2024-03-25T09:42:55;39.88;;;19.83;;
31210;SDS011;17836;50.948;3.946;2024-03-25T09:45:31;34.85;;;19.98;;
31210;SDS011;17836;50.948;3.946;2024-03-25T09:47:57;33.97;;;20.23;;
31210;SDS011;17836;50.948;3.946;2024-03-25T09:50:25;41.72;;;21.65;;
31210;SDS011;17836;50.948;3.946;2024-03-25T09:52:51;30.00;;;17.77;;
31210;SDS011;17836;50.948;3.946;2024-03-25T09:55:17;36.37;;;18.73;;
31210;SDS011;17836;50.948;3.946;2024-03-25T09:57:45;28.65;;;15.57;;
31210;SDS011;17836;50.948;3.946;2024-03-25T10:00:11;27.90;;;15.30;;
31210;SDS011;17836;50.948;3.946;2024-03-25T10:02:37;31.27;;;15.32;;
31210;SDS011;17836;50.948;3.946;2024-03-25T10:05:07;26.42;;;12.25;;
31210;SDS011;17836;50.948;3.946;2024-03-25T10:07:33;22.67;;;12.65;;
31210;SDS011;17836;50.948;3.946;2024-03-25T10:09:58;20.00;;;10.65;;
31210;SDS011;17836;50.948;3.946;2024-03-25T10:12:26;21.80;;;11.45;;
31210;SDS011;17836;50.948;3.946;2024-03-25T10:14:54;21.90;;;12.43;;
31210;SDS011;17836;50.948;3.946;2024-03-25T10:17:22;18.77;;;8.57;;
31210;SDS011;17836;50.948;3.946;2024-03-25T10:19:49;15.10;;;7.50;;
31210;SDS011;17836;50.948;3.946;2024-03-25T10:22:17;14.27;;;5.50;;
31210;SDS011;17836;50.948;3.946;2024-03-25T10:24:43;17.33;;;6.47;;
31210;SDS011;17836;50.948;3.946;2024-03-25T10:27:19;14.52;;;5.93;;
31210;SDS011;17836;50.948;3.946;2024-03-25T10:29:53;15.73;;;5.88;;
31210;SDS011;17836;50.948;3.946;2024-03-25T10:32:21;14.35;;;5.43;;
31210;SDS011;17836;50.948;3.946;2024-03-25T10:34:49;12.25;;;5.25;;
31210;SDS011;17836;50.948;3.946;2024-03-25T10:37:19;8.93;;;5.20;;
31210;SDS011;17836;50.948;3.946;2024-03-25T10:39:47;7.60;;;5.10;;
31210;SDS011;17836;50.948;3.946;2024-03-25T10:42:20;14.93;;;5.47;;
31210;SDS011;17836;50.948;3.946;2024-03-25T10:44:47;8.13;;;5.35;;
31210;SDS011;17836;50.948;3.946;2024-03-25T10:47:23;11.27;;;4.95;;
31210;SDS011;17836;50.948;3.946;2024-03-25T10:49:59;14.45;;;5.10;;
31210;SDS011;17836;50.948;3.946;2024-03-25T10:52:26;10.30;;;4.45;;
31210;SDS011;17836;50.948;3.946;2024-03-25T10:54:51;15.77;;;4.90;;
31210;SDS011;17836;50.948;3.946;2024-03-25T10:57:19;8.38;;;3.80;;
31210;SDS011;17836;50.948;3.946;2024-03-25T10:59:45;18.55;;;5.47;;
31210;SDS011;17836;50.948;3.946;2024-03-25T11:02:10;6.80;;;3.42;;
31210;SDS011;17836;50.948;3.946;2024-03-25T11:04:38;7.13;;;3.25;;
31210;SDS011;17836;50.948;3.946;2024-03-25T11:07:15;10.93;;;3.53;;
31210;SDS011;17836;50.948;3.946;2024-03-25T11:09:43;7.85;;;3.83;;
31210;SDS011;17836;50.948;3.946;2024-03-25T11:12:10;11.10;;;4.07;;
31210;SDS011;17836;50.948;3.946;2024-03-25T11:14:38;6.68;;;3.40;;
31210;SDS011;17836;50.948;3.946;2024-03-25T11:17:15;8.15;;;3.28;;
31210;SDS011;17836;50.948;3.946;2024-03-25T11:19:41;5.13;;;3.10;;
31210;SDS011;17836;50.948;3.946;2024-03-25T11:22:10;10.03;;;4.00;;
31210;SDS011;17836;50.948;3.946;2024-03-25T11:24:35;4.95;;;3.78;;
31210;SDS011;17836;50.948;3.946;2024-03-25T11:27:07;8.98;;;3.60;;
31210;SDS011;17836;50.948;3.946;2024-03-25T11:29:33;8.75;;;2.95;;
31210;SDS011;17836;50.948;3.946;2024-03-25T11:31:59;4.70;;;2.50;;
31210;SDS011;17836;50.948;3.946;2024-03-25T11:34:25;7.63;;;3.20;;
31210;SDS011;17836;50.948;3.946;2024-03-25T11:36:58;5.43;;;3.87;;
31210;SDS011;17836;50.948;3.946;2024-03-25T11:39:26;7.40;;;3.20;;
31210;SDS011;17836;50.948;3.946;2024-03-25T11:41:55;7.15;;;2.55;;
31210;SDS011;17836;50.948;3.946;2024-03-25T12:36:14;7.30;;;2.80;;
31210;SDS011;17836;50.948;3.946;2024-03-25T12:39:00;9.05;;;3.17;;
31210;SDS011;17836;50.948;3.946;2024-03-25T12:44:04;3.75;;;1.88;;
31210;SDS011;17836;50.948;3.946;2024-03-25T12:46:30;4.22;;;2.28;;
31210;SDS011;17836;50.948;3.946;2024-03-25T12:48:55;4.03;;;2.47;;
31210;SDS011;17836;50.948;3.946;2024-03-25T12:51:20;5.93;;;2.50;;
31210;SDS011;17836;50.948;3.946;2024-03-25T12:53:46;5.18;;;2.70;;
31210;SDS011;17836;50.948;3.946;2024-03-25T12:56:11;6.63;;;2.63;;
31210;SDS011;17836;50.948;3.946;2024-03-25T12:58:36;4.27;;;2.10;;
31210;SDS011;17836;50.948;3.946;2024-03-25T13:01:01;10.23;;;2.30;;
31210;SDS011;17836;50.948;3.946;2024-03-25T13:03:27;5.78;;;2.03;;
31210;SDS011;17836;50.948;3.946;2024-03-25T13:05:52;3.33;;;2.43;;
31210;SDS011;17836;50.948;3.946;2024-03-25T13:08:19;4.47;;;1.70;;
31210;SDS011;17836;50.948;3.946;2024-03-25T13:10:52;4.40;;;1.70;;
31210;SDS011;17836;50.948;3.946;2024-03-25T13:13:18;3.40;;;1.92;;
31210;SDS011;17836;50.948;3.946;2024-03-25T13:15:43;4.38;;;2.15;;
31210;SDS011;17836;50.948;3.946;2024-03-25T13:18:08;3.47;;;2.05;;
31210;SDS011;17836;50.948;3.946;2024-03-25T13:20:34;7.32;;;4.35;;
31210;SDS011;17836;50.948;3.946;2024-03-25T13:22:59;3.78;;;1.88;;
31210;SDS011;17836;50.948;3.946;2024-03-25T13:25:27;2.53;;;1.70;;
31210;SDS011;17836;50.948;3.946;2024-03-25T13:27:53;6.80;;;1.88;;
31210;SDS011;17836;50.948;3.946;2024-03-25T13:30:18;2.72;;;1.85;;
31210;SDS011;17836;50.948;3.946;2024-03-25T13:32:50;5.22;;;2.22;;
31210;SDS011;17836;50.948;3.946;2024-03-25T13:35:18;2.10;;;1.63;;
31210;SDS011;17836;50.948;3.946;2024-03-25T13:37:45;5.40;;;2.07;;
31210;SDS011;17836;50.948;3.946;2024-03-25T13:40:14;3.73;;;1.40;;
31210;SDS011;17836;50.948;3.946;2024-03-25T13:42:40;5.45;;;2.55;;
31210;SDS011;17836;50.948;3.946;2024-03-25T13:45:05;5.35;;;2.30;;
31210;SDS011;17836;50.948;3.946;2024-03-25T13:47:30;5.10;;;1.88;;
31210;SDS011;17836;50.948;3.946;2024-03-25T13:50:05;2.93;;;2.27;;
31210;SDS011;17836;50.948;3.946;2024-03-25T13:52:34;2.90;;;1.80;;
31210;SDS011;17836;50.948;3.946;2024-03-25T13:55:02;5.18;;;1.90;;
31210;SDS011;17836;50.948;3.946;2024-03-25T13:57:27;5.90;;;2.28;;
31210;SDS011;17836;50.948;3.946;2024-03-25T13:59:53;4.93;;;3.00;;
31210;SDS011;17836;50.948;3.946;2024-03-25T14:02:18;9.95;;;5.35;;
31210;SDS011;17836;50.948;3.946;2024-03-25T14:04:43;3.42;;;2.10;;
31210;SDS011;17836;50.948;3.946;2024-03-25T14:07:11;4.67;;;1.97;;
31210;SDS011;17836;50.948;3.946;2024-03-25T14:09:37;7.00;;;2.65;;
31210;SDS011;17836;50.948;3.946;2024-03-25T14:12:02;7.75;;;4.38;;
31210;SDS011;17836;50.948;3.946;2024-03-25T14:14:28;4.47;;;2.05;;
31210;SDS011;17836;50.948;3.946;2024-03-25T14:16:53;4.13;;;2.00;;
31210;SDS011;17836;50.948;3.946;2024-03-25T14:19:19;2.67;;;1.70;;
31210;SDS011;17836;50.948;3.946;2024-03-25T14:21:48;7.07;;;2.05;;
31210;SDS011;17836;50.948;3.946;2024-03-25T14:24:13;5.82;;;2.03;;
31210;SDS011;17836;50.948;3.946;2024-03-25T14:26:40;4.82;;;2.58;;
31210;SDS011;17836;50.948;3.946;2024-03-25T14:50:25;2.80;;;1.58;;
31210;SDS011;17836;50.948;3.946;2024-03-25T14:52:51;4.17;;;2.30;;
31210;SDS011;17836;50.948;3.946;2024-03-25T14:58:19;4.18;;;1.65;;
31210;SDS011;17836;50.948;3.946;2024-03-25T15:00:44;1.67;;;1.53;;
31210;SDS011;17836;50.948;3.946;2024-03-25T15:03:12;1.60;;;1.50;;
31210;SDS011;17836;50.948;3.946;2024-03-25T15:05:37;2.85;;;2.10;;
31210;SDS011;17836;50.948;3.946;2024-03-25T15:08:02;5.40;;;2.08;;
31210;SDS011;17836;50.948;3.946;2024-03-25T15:10:29;3.88;;;1.73;;
31210;SDS011;17836;50.948;3.946;2024-03-25T15:12:58;3.53;;;2.08;;
31210;SDS011;17836;50.948;3.946;2024-03-25T15:15:23;4.07;;;1.90;;
31210;SDS011;17836;50.948;3.946;2024-03-25T15:17:51;3.57;;;1.40;;
31210;SDS011;17836;50.948;3.946;2024-03-25T15:20:17;3.65;;;1.30;;
31210;SDS011;17836;50.948;3.946;2024-03-25T15:22:42;3.83;;;1.60;;
31210;SDS011;17836;50.948;3.946;2024-03-25T15:25:09;4.63;;;2.00;;
31210;SDS011;17836;50.948;3.946;2024-03-25T15:27:35;5.30;;;2.15;;
31210;SDS011;17836;50.948;3.946;2024-03-25T15:30:01;3.45;;;1.83;;
31210;SDS011;17836;50.948;3.946;2024-03-25T15:32:29;3.50;;;2.00;;
31210;SDS011;17836;50.948;3.946;2024-03-25T15:34:54;3.47;;;1.60;;
31210;SDS011;17836;50.948;3.946;2024-03-25T15:37:20;5.90;;;2.50;;
31210;SDS011;17836;50.948;3.946;2024-03-25T15:39:45;3.27;;;1.70;;
31210;SDS011;17836;50.948;3.946;2024-03-25T15:42:10;4.83;;;1.70;;
31210;SDS011;17836;50.948;3.946;2024-03-25T15:44:35;3.17;;;1.63;;
31210;SDS011;17836;50.948;3.946;2024-03-25T15:47:01;2.60;;;1.80;;
31210;SDS011;17836;50.948;3.946;2024-03-25T15:49:26;5.45;;;1.65;;
31210;SDS011;17836;50.948;3.946;2024-03-25T15:51:52;3.30;;;2.10;;
31210;SDS011;17836;50.948;3.946;2024-03-25T15:54:17;6.28;;;2.40;;
31210;SDS011;17836;50.948;3.946;2024-03-25T15:56:43;2.30;;;1.50;;
31210;SDS011;17836;50.948;3.946;2024-03-25T15:59:08;3.90;;;2.30;;
31210;SDS011;17836;50.948;3.946;2024-03-25T16:01:33;6.73;;;2.10;;
31210;SDS011;17836;50.948;3.946;2024-03-25T16:03:59;4.03;;;1.80;;
31210;SDS011;17836;50.948;3.946;2024-03-25T16:06:24;6.97;;;1.50;;
31210;SDS011;17836;50.948;3.946;2024-03-25T16:08:50;2.80;;;1.27;;
31210;SDS011;17836;50.948;3.946;2024-03-25T16:11:18;4.53;;;1.35;;
31210;SDS011;17836;50.948;3.946;2024-03-25T16:13:44;1.77;;;1.10;;
31210;SDS011;17836;50.948;3.946;2024-03-25T16:16:09;2.38;;;1.50;;
31210;SDS011;17836;50.948;3.946;2024-03-25T16:18:37;4.15;;;1.25;;
31210;SDS011;17836;50.948;3.946;2024-03-25T16:21:11;5.75;;;1.77;;
31210;SDS011;17836;50.948;3.946;2024-03-25T16:23:41;4.28;;;1.63;;
31210;SDS011;17836;50.948;3.946;2024-03-25T16:26:09;5.43;;;1.60;;
31210;SDS011;17836;50.948;3.946;2024-03-25T16:28:35;6.43;;;1.77;;
31210;SDS011;17836;50.948;3.946;2024-03-25T16:31:01;8.45;;;1.77;;
31210;SDS011;17836;50.948;3.946;2024-03-25T16:33:26;2.85;;;1.33;;
31210;SDS011;17836;50.948;3.946;2024-03-25T16:35:51;3.03;;;1.40;;
31210;SDS011;17836;50.948;3.946;2024-03-25T16:38:16;8.80;;;4.77;;
31210;SDS011;17836;50.948;3.946;2024-03-25T16:40:42;6.37;;;4.83;;
31210;SDS011;17836;50.948;3.946;2024-03-25T16:43:07;5.70;;;3.03;;
31210;SDS011;17836;50.948;3.946;2024-03-25T16:45:33;7.30;;;2.40;;
31210;SDS011;17836;50.948;3.946;2024-03-25T16:47:58;6.87;;;4.13;;
31210;SDS011;17836;50.948;3.946;2024-03-25T16:50:25;9.95;;;7.32;;
31210;SDS011;17836;50.948;3.946;2024-03-25T16:52:52;7.05;;;4.20;;
31210;SDS011;17836;50.948;3.946;2024-03-25T16:55:18;3.30;;;2.40;;
31210;SDS011;17836;50.948;3.946;2024-03-25T16:57:43;5.10;;;3.10;;
31210;SDS011;17836;50.948;3.946;2024-03-25T17:00:09;2.58;;;2.10;;
31210;SDS011;17836;50.948;3.946;2024-03-25T17:02:34;5.53;;;2.30;;
31210;SDS011;17836;50.948;3.946;2024-03-25T17:04:59;2.03;;;1.27;;
31210;SDS011;17836;50.948;3.946;2024-03-25T17:07:26;3.38;;;1.52;;
31210;SDS011;17836;50.948;3.946;2024-03-25T17:09:51;2.03;;;1.40;;
31210;SDS011;17836;50.948;3.946;2024-03-25T17:12:16;2.93;;;1.63;;
31210;SDS011;17836;50.948;3.946;2024-03-25T17:14:51;3.40;;;1.42;;
31210;SDS011;17836;50.948;3.946;2024-03-25T17:17:17;2.85;;;1.30;;
31210;SDS011;17836;50.948;3.946;2024-03-25T17:19:42;4.07;;;2.87;;
31210;SDS011;17836;50.948;3.946;2024-03-25T17:22:10;15.10;;;3.03;;
31210;SDS011;17836;50.948;3.946;2024-03-25T17:24:35;6.57;;;2.10;;
31210;SDS011;17836;50.948;3.946;2024-03-25T17:27:01;5.93;;;4.15;;
31210;SDS011;17836;50.948;3.946;2024-03-25T17:29:31;9.43;;;4.18;;